Pagina principale
METAR-TAF:

METAR-TAF

Aeroporti :

Aeroporto militare Mario de Bernardi

Pratica Di Mare, Italia

latitudine: 41-39N, longitudine: 012-27E, altezza: 6 m

Osservazione

Il bollettino è stato emesso 47 minuti fa, alle 09:55 UTC
Vento 2 kt da nord/nord-est
Temperature 22°C
Umidità 60%
Pressione 1016 hPa
Visibilità 10 km o più
Nubi sparse ad un'altezza di 6000 ft

METAR: LIRE 150955Z 02002KT 9999 SCT060 22/14 Q1016 RMK SCT VIS MIN 9999 WIND THR13 06002KT WIND THR31 ////KT BLU

Ora: 12:42 (10:42 UTC)

Previsione

Il bollettino è stato emesso 2 ore e 42 minuti fa, alle 08:00 UTC
Previsione valida dal 15 alle 09 UTC al 15 alle 18 UTC
Vento 8 kt da nord/nord-est
Visibilità 10 km o più
Poco nuvoloso ad un'altezza di 4000 ft

TAF: LIRE 150800Z 1509/1518 02008KT 9999 FEW040

Osservazioni e previsioni meteorologiche di più di 4000 aeroporti (messaggi METAR e TAF).

Le stazioni disponibili sono rappresentate dai dischi gialli e rossi sulla carta.

Puntare il mouse per vedere il nome della stazione.

Clicca sopra per visualizzare le osservazioni e previsioni meteorologiche.

Per cambiare la mappa : fare clic sui pulsanti verdi con una croce nera per ingrandire, il pulsante verde con un trattino per diminuire, o sulla freccia verde per le mappe adiacenti.


METAR-TAF: